Time;durP1;ratioP1;P1;durP2;ratioP2;P2;SDS_P1;SDS_P2;PMS_P1;PMS_P2;Temp;Humidity;BMP_temperature;BMP_pressure;BME280_temperature;BME280_humidity;BME280_pressure;Samples;Min_cycle;Max_cycle;Signal;HPM_P1;HPM_P2
2023/09/19 00:01:40;;;;;;;7.80;1.27;;;15.50;47.70;;;;;;5115983;27;20408;-71
2023/09/19 00:04:09;;;;;;;7.78;1.27;;;15.40;47.80;;;;;;5122029;27;20467;-70
2023/09/19 00:06:36;;;;;;;7.05;1.23;;;15.40;48.40;;;;;;5096061;27;20823;-71
2023/09/19 00:09:03;;;;;;;10.17;1.60;;;15.40;49.10;;;;;;5124918;27;20784;-71
2023/09/19 00:11:28;;;;;;;8.73;1.63;;;15.30;48.90;;;;;;5123992;27;20390;-71
2023/09/19 00:13:54;;;;;;;8.90;1.40;;;15.30;49.30;;;;;;5124080;27;20813;-69
2023/09/19 00:16:20;;;;;;;8.45;1.48;;;15.30;49.40;;;;;;5112978;27;20402;-70
2023/09/19 00:18:46;;;;;;;9.85;1.35;;;15.30;49.70;;;;;;5096630;28;20477;-70
2023/09/19 00:21:12;;;;;;;6.07;1.50;;;15.20;49.80;;;;;;5113153;27;20404;-69
2023/09/19 00:23:40;;;;;;;9.05;1.58;;;15.20;50.30;;;;;;5110375;27;20420;-70
2023/09/19 00:26:06;;;;;;;10.43;1.53;;;15.20;49.60;;;;;;5116052;27;20412;-70
2023/09/19 00:28:32;;;;;;;9.00;1.75;;;15.10;49.60;;;;;;5109395;27;20400;-70
2023/09/19 00:30:59;;;;;;;7.63;1.50;;;15.10;49.90;;;;;;5112679;27;20442;-70
2023/09/19 00:33:26;;;;;;;8.05;1.55;;;15.00;50.40;;;;;;5117080;27;20440;-70
2023/09/19 00:35:53;;;;;;;9.83;1.80;;;15.00;50.70;;;;;;5121013;27;20418;-71
2023/09/19 00:38:26;;;;;;;8.80;1.63;;;15.00;51.20;;;;;;5102513;27;20911;-71
2023/09/19 00:40:52;;;;;;;7.75;1.70;;;14.90;51.70;;;;;;5121840;27;20473;-70
2023/09/19 00:43:18;;;;;;;8.57;1.40;;;14.90;52.60;;;;;;5112027;27;20523;-70
2023/09/19 00:45:48;;;;;;;10.07;1.60;;;14.90;52.80;;;;;;5121671;27;20518;-71
2023/09/19 00:48:15;;;;;;;6.75;1.70;;;14.90;53.40;;;;;;5119003;27;20432;-71
2023/09/19 00:50:43;;;;;;;9.27;1.47;;;15.00;53.70;;;;;;5116076;27;20404;-70
2023/09/19 00:53:13;;;;;;;8.50;1.63;;;15.00;53.80;;;;;;5116620;27;20430;-70
2023/09/19 00:55:40;;;;;;;10.63;1.80;;;15.10;52.20;;;;;;5108187;28;20461;-70
2023/09/19 00:58:06;;;;;;;10.57;1.85;;;15.10;52.90;;;;;;5115822;27;20399;-70
2023/09/19 01:00:33;;;;;;;7.57;1.48;;;15.10;52.90;;;;;;5113698;27;20817;-70
2023/09/19 01:03:03;;;;;;;7.80;1.35;;;15.10;52.20;;;;;;5114944;27;20432;-70
2023/09/19 01:05:29;;;;;;;7.23;1.50;;;15.00;51.10;;;;;;5118604;27;20487;-70
2023/09/19 01:07:55;;;;;;;8.13;1.55;;;15.00;50.90;;;;;;5100275;28;20400;-70
2023/09/19 01:10:22;;;;;;;8.95;1.50;;;15.00;50.80;;;;;;5076204;28;20407;-70
2023/09/19 01:13:17;;;;;;;10.55;1.60;;;14.90;50.30;;;;;;5119289;27;20457;-70
2023/09/19 01:16:18;;;;;;;7.88;1.52;;;14.90;49.80;;;;;;5094435;27;20952;-70
2023/09/19 01:18:50;;;;;;;7.45;1.50;;;14.80;48.60;;;;;;5111255;28;20400;-70
2023/09/19 01:21:55;;;;;;;8.88;1.40;;;14.80;48.10;;;;;;5114193;28;20815;-71
2023/09/19 01:24:38;;;;;;;8.27;1.48;;;14.80;48.20;;;;;;5121574;28;20480;-70
2023/09/19 01:27:36;;;;;;;9.27;1.80;;;14.80;48.10;;;;;;5121601;28;20492;-70
2023/09/19 01:30:32;;;;;;;6.63;1.37;;;14.70;48.00;;;;;;5108437;28;20408;-70
2023/09/19 01:32:59;;;;;;;10.30;1.80;;;14.70;48.00;;;;;;5095596;28;20421;-69
2023/09/19 01:35:25;;;;;;;11.07;1.70;;;14.60;47.10;;;;;;5111303;28;20392;-70
2023/09/19 01:37:53;;;;;;;9.85;1.60;;;14.50;46.70;;;;;;5115658;28;20399;-70
2023/09/19 01:40:22;;;;;;;8.10;1.40;;;14.50;46.60;;;;;;5119893;28;20394;-70
2023/09/19 01:42:59;;;;;;;13.15;1.60;;;14.50;46.10;;;;;;5111374;28;20886;-70
2023/09/19 01:45:24;;;;;;;7.75;1.33;;;14.40;45.60;;;;;;5103439;28;20512;-70
2023/09/19 01:47:56;;;;;;;8.50;1.47;;;14.40;45.60;;;;;;5111606;28;20487;-70
2023/09/19 01:50:32;;;;;;;12.70;2.03;;;14.40;44.60;;;;;;5125745;27;20427;-69
2023/09/19 01:53:09;;;;;;;8.50;1.40;;;14.30;43.90;;;;;;5116071;27;20408;-70
2023/09/19 01:55:42;;;;;;;7.75;1.60;;;14.30;43.90;;;;;;5118770;27;20463;-70
2023/09/19 01:58:17;;;;;;;11.63;2.00;;;14.20;43.50;;;;;;5123778;27;20413;-70
2023/09/19 02:00:46;;;;;;;7.63;1.55;;;14.20;43.20;;;;;;5128379;27;20769;-70
2023/09/19 02:03:12;;;;;;;7.18;1.70;;;14.20;43.80;;;;;;5123894;27;20393;-70
2023/09/19 02:05:39;;;;;;;9.25;1.88;;;14.20;42.70;;;;;;5118863;27;20399;-70
2023/09/19 02:08:05;;;;;;;10.15;1.60;;;14.10;41.70;;;;;;5112152;27;20457;-69
2023/09/19 02:10:31;;;;;;;6.38;1.48;;;14.10;40.70;;;;;;5103708;27;20395;-70
2023/09/19 02:12:56;;;;;;;8.60;1.23;;;14.10;40.40;;;;;;5118991;27;20892;-70
2023/09/19 02:15:22;;;;;;;7.28;1.50;;;14.10;39.50;;;;;;5122139;27;20411;-70
2023/09/19 02:17:48;;;;;;;7.50;1.43;;;14.10;39.70;;;;;;5099771;27;20412;-70
2023/09/19 02:20:16;;;;;;;10.95;1.60;;;14.10;39.70;;;;;;5107096;27;20398;-70
2023/09/19 02:22:42;;;;;;;8.25;1.50;;;14.00;39.80;;;;;;5111807;28;20396;-71
2023/09/19 02:25:08;;;;;;;8.50;1.35;;;14.00;39.90;;;;;;5129815;27;20908;-70
2023/09/19 02:27:34;;;;;;;7.13;1.42;;;14.00;40.30;;;;;;5124726;27;20402;-70
2023/09/19 02:30:04;;;;;;;7.63;1.35;;;14.00;40.60;;;;;;5118216;27;20410;-70
2023/09/19 02:32:31;;;;;;;9.15;1.65;;;14.00;40.90;;;;;;5123423;27;20431;-70
2023/09/19 02:34:58;;;;;;;8.80;1.50;;;13.90;40.70;;;;;;5125549;27;20406;-70
2023/09/19 02:37:23;;;;;;;6.97;1.92;;;13.90;40.60;;;;;;5117928;27;20399;-70
2023/09/19 02:39:49;;;;;;;8.57;1.70;;;13.90;40.70;;;;;;5117473;27;20449;-70
2023/09/19 02:42:14;;;;;;;7.65;1.10;;;13.80;40.90;;;;;;5093558;28;20419;-70
2023/09/19 02:44:40;;;;;;;7.70;1.40;;;13.80;41.00;;;;;;5117861;27;20426;-71
2023/09/19 02:47:06;;;;;;;9.70;1.45;;;13.80;40.90;;;;;;5123487;27;20838;-71
2023/09/19 02:49:32;;;;;;;11.33;1.73;;;13.80;40.80;;;;;;5115728;27;20773;-70
2023/09/19 02:51:59;;;;;;;7.40;1.77;;;13.70;40.30;;;;;;5092419;28;20914;-70
2023/09/19 02:54:25;;;;;;;8.43;1.52;;;13.80;40.40;;;;;;5112177;27;20705;-70
2023/09/19 02:56:50;;;;;;;6.78;1.27;;;13.70;40.20;;;;;;5110170;28;20396;-70
2023/09/19 02:59:16;;;;;;;9.90;1.57;;;13.70;39.80;;;;;;5116854;27;20400;-70
2023/09/19 03:01:47;;;;;;;8.05;1.42;;;13.70;39.80;;;;;;5123584;27;20411;-70
2023/09/19 03:04:17;;;;;;;6.97;1.40;;;13.70;39.10;;;;;;5120480;27;20437;-70
2023/09/19 03:06:44;;;;;;;7.55;1.50;;;13.70;38.40;;;;;;5095124;27;20413;-70
2023/09/19 03:09:11;;;;;;;6.57;1.08;;;13.70;38.10;;;;;;5099020;27;20425;-70
2023/09/19 03:11:37;;;;;;;7.53;1.52;;;13.70;37.70;;;;;;5115121;27;20824;-70
2023/09/19 03:14:04;;;;;;;7.88;1.50;;;13.70;37.40;;;;;;5128361;27;20438;-70
2023/09/19 03:16:29;;;;;;;10.33;1.50;;;13.70;37.30;;;;;;5125940;27;20394;-71
2023/09/19 03:18:55;;;;;;;9.18;2.00;;;13.60;36.50;;;;;;5109392;27;20469;-70
2023/09/19 03:21:21;;;;;;;7.10;1.33;;;13.70;36.30;;;;;;5109771;27;20415;-70
2023/09/19 03:23:47;;;;;;;6.00;1.05;;;13.70;35.80;;;;;;5115489;27;20459;-71
2023/09/19 03:26:16;;;;;;;7.37;1.40;;;13.70;35.60;;;;;;5115541;27;20430;-71
2023/09/19 03:28:43;;;;;;;7.50;1.33;;;13.70;35.80;;;;;;5124312;27;20737;-71
2023/09/19 03:31:09;;;;;;;10.43;1.53;;;13.80;35.50;;;;;;5120237;27;20407;-70
2023/09/19 03:33:35;;;;;;;9.85;1.63;;;13.70;35.20;;;;;;5111485;27;20519;-70
2023/09/19 03:36:04;;;;;;;7.13;1.20;;;13.80;35.50;;;;;;5126738;27;20536;-71
2023/09/19 03:38:32;;;;;;;5.88;1.33;;;13.80;34.90;;;;;;5113596;27;20542;-69
2023/09/19 03:40:57;;;;;;;6.88;1.42;;;13.80;35.20;;;;;;5120748;27;20415;-69
2023/09/19 03:43:23;;;;;;;7.95;1.77;;;13.80;35.20;;;;;;5112861;27;20398;-70
2023/09/19 03:45:50;;;;;;;8.60;1.30;;;13.80;35.50;;;;;;5127665;27;20401;-70
2023/09/19 03:48:16;;;;;;;7.90;1.30;;;13.80;35.20;;;;;;5114038;27;20405;-70
2023/09/19 03:50:43;;;;;;;8.27;1.13;;;13.80;35.50;;;;;;5128038;27;20398;-70
2023/09/19 03:53:09;;;;;;;9.73;1.42;;;13.70;35.90;;;;;;5125363;27;20406;-70
2023/09/19 03:55:35;;;;;;;11.15;1.38;;;13.70;36.10;;;;;;5118239;27;20889;-70
2023/09/19 03:58:02;;;;;;;5.93;1.03;;;13.70;36.50;;;;;;5105254;28;20408;-70
2023/09/19 04:00:29;;;;;;;7.78;1.67;;;13.70;36.50;;;;;;5098710;27;20433;-70
2023/09/19 04:02:56;;;;;;;8.77;1.30;;;13.70;37.10;;;;;;5108584;27;20407;-71
2023/09/19 04:05:22;;;;;;;8.73;1.65;;;13.70;37.00;;;;;;5128131;27;20419;-70
2023/09/19 04:07:48;;;;;;;8.50;1.33;;;13.60;37.80;;;;;;5113049;27;20392;-71
2023/09/19 04:10:14;;;;;;;6.65;1.65;;;13.60;37.80;;;;;;5120031;27;20821;-69
2023/09/19 04:12:40;;;;;;;9.47;1.57;;;13.60;38.50;;;;;;5092539;27;20790;-70
2023/09/19 04:15:07;;;;;;;6.93;1.50;;;13.60;38.70;;;;;;5109599;27;20462;-70
2023/09/19 04:17:33;;;;;;;7.95;1.30;;;13.50;39.60;;;;;;5115829;27;20407;-70
2023/09/19 04:19:59;;;;;;;8.45;1.30;;;13.50;40.20;;;;;;5109392;28;20894;-69
2023/09/19 04:22:25;;;;;;;6.80;1.30;;;13.50;40.90;;;;;;5109360;27;20453;-69
2023/09/19 04:24:51;;;;;;;8.32;1.52;;;13.50;41.60;;;;;;5127069;27;20430;-70
2023/09/19 04:27:16;;;;;;;8.13;1.50;;;13.50;42.10;;;;;;5123670;27;20401;-70
2023/09/19 04:29:42;;;;;;;7.33;1.40;;;13.50;43.50;;;;;;5127003;27;20405;-69
2023/09/19 04:32:09;;;;;;;9.32;1.70;;;13.50;42.70;;;;;;5104650;28;20436;-70
2023/09/19 04:34:35;;;;;;;8.80;1.67;;;13.50;43.10;;;;;;5116920;27;20418;-70
2023/09/19 04:37:02;;;;;;;7.55;1.63;;;13.50;43.50;;;;;;5122895;27;20946;-69
2023/09/19 04:39:28;;;;;;;7.35;1.50;;;13.50;44.50;;;;;;5109195;28;20392;-70
2023/09/19 04:41:54;;;;;;;9.23;1.57;;;13.60;44.70;;;;;;5120172;27;20400;-69
2023/09/19 04:44:20;;;;;;;8.10;1.58;;;13.60;45.20;;;;;;5119152;27;20424;-70
2023/09/19 04:46:46;;;;;;;9.73;1.95;;;13.60;44.90;;;;;;5119486;27;20935;-70
2023/09/19 04:49:12;;;;;;;6.37;1.67;;;13.60;45.10;;;;;;5108768;28;20405;-70
2023/09/19 04:51:38;;;;;;;7.15;1.70;;;13.70;45.30;;;;;;5108920;27;20454;-69
2023/09/19 04:54:04;;;;;;;7.88;1.20;;;13.70;45.60;;;;;;5119122;27;20437;-70
2023/09/19 04:56:31;;;;;;;7.80;1.60;;;13.70;45.80;;;;;;5112046;27;20453;-69
2023/09/19 04:58:58;;;;;;;6.07;1.30;;;13.70;46.20;;;;;;5107916;28;20403;-69
2023/09/19 05:01:24;;;;;;;9.20;1.63;;;13.60;46.80;;;;;;5096265;27;20440;-70
2023/09/19 05:03:53;;;;;;;7.78;1.50;;;13.70;46.20;;;;;;5107919;27;20875;-70
2023/09/19 05:06:20;;;;;;;6.80;1.52;;;13.60;46.40;;;;;;5112821;27;20403;-69
2023/09/19 05:08:51;;;;;;;6.97;1.50;;;13.70;45.60;;;;;;5126506;27;20454;-70
2023/09/19 05:11:21;;;;;;;7.68;1.63;;;13.60;46.80;;;;;;5121162;27;20469;-70
2023/09/19 05:13:47;;;;;;;9.70;1.65;;;13.60;46.80;;;;;;5108355;28;20396;-69
2023/09/19 05:16:13;;;;;;;6.87;1.37;;;13.60;46.80;;;;;;5108275;28;20920;-70
2023/09/19 05:18:39;;;;;;;7.63;1.40;;;13.70;47.20;;;;;;5118236;27;20438;-70
2023/09/19 05:21:05;;;;;;;9.93;1.60;;;13.60;47.10;;;;;;5120160;27;20408;-69
2023/09/19 05:23:31;;;;;;;8.48;1.80;;;13.60;47.40;;;;;;5108013;28;20412;-70
2023/09/19 05:25:58;;;;;;;7.30;1.57;;;13.60;47.70;;;;;;5108552;28;20419;-69
2023/09/19 05:28:24;;;;;;;8.05;1.60;;;13.60;47.90;;;;;;5111497;28;20430;-74
2023/09/19 05:30:49;;;;;;;9.57;1.97;;;13.60;48.00;;;;;;5115297;28;20464;-71
2023/09/19 05:33:15;;;;;;;8.35;1.80;;;13.70;48.60;;;;;;5116504;28;20461;-70
2023/09/19 05:35:41;;;;;;;9.10;1.80;;;13.70;48.80;;;;;;5117711;28;20896;-70
2023/09/19 05:38:08;;;;;;;7.72;1.50;;;13.70;48.70;;;;;;5108174;28;20865;-70
2023/09/19 05:40:35;;;;;;;7.13;1.73;;;13.70;48.40;;;;;;5112238;28;20780;-70
2023/09/19 05:43:02;;;;;;;8.93;1.77;;;13.80;48.60;;;;;;5114990;28;20434;-71
2023/09/19 05:45:27;;;;;;;9.43;1.50;;;13.80;50.20;;;;;;5108169;28;20428;-71
2023/09/19 05:48:04;;;;;;;8.30;1.53;;;13.80;50.60;;;;;;5107721;28;20423;-71
2023/09/19 05:50:29;;;;;;;7.75;1.65;;;13.80;50.80;;;;;;5124974;28;20401;-71
2023/09/19 05:52:55;;;;;;;9.67;1.50;;;13.80;49.90;;;;;;5124644;28;20803;-71
2023/09/19 05:55:24;;;;;;;8.17;1.43;;;13.90;50.20;;;;;;5119536;28;20481;-71
2023/09/19 05:57:54;;;;;;;7.22;1.50;;;13.90;50.00;;;;;;5121205;28;20406;-71
2023/09/19 06:00:22;;;;;;;8.45;1.70;;;14.00;50.50;;;;;;5113397;28;20473;-71
2023/09/19 06:02:52;;;;;;;8.50;1.90;;;13.90;49.90;;;;;;5123343;28;20764;-69
2023/09/19 06:05:18;;;;;;;6.93;1.53;;;14.00;49.80;;;;;;5114613;28;20923;-70
2023/09/19 06:07:44;;;;;;;7.63;1.40;;;14.00;49.20;;;;;;5124487;28;20394;-70
2023/09/19 06:10:10;;;;;;;9.68;1.63;;;14.00;50.20;;;;;;5116925;28;20399;-70
2023/09/19 06:12:44;;;;;;;7.10;1.60;;;14.10;49.50;;;;;;5123247;28;20402;-70
2023/09/19 06:15:19;;;;;;;10.35;1.73;;;14.10;48.60;;;;;;5125324;28;20452;-70
2023/09/19 06:17:55;;;;;;;8.45;1.67;;;14.10;49.00;;;;;;5103930;28;20408;-71
2023/09/19 06:20:23;;;;;;;9.43;1.67;;;14.10;49.10;;;;;;5125084;28;20391;-70
2023/09/19 06:22:49;;;;;;;7.68;1.67;;;14.10;50.00;;;;;;5121264;28;20485;-70
2023/09/19 06:25:19;;;;;;;8.02;1.70;;;14.20;48.80;;;;;;5116183;28;20601;-70
2023/09/19 06:27:45;;;;;;;8.07;1.83;;;14.20;49.00;;;;;;5117803;28;20405;-70
2023/09/19 06:30:12;;;;;;;7.80;1.55;;;14.20;48.20;;;;;;5117790;28;20442;-70
2023/09/19 06:32:37;;;;;;;8.40;1.55;;;14.20;48.40;;;;;;5095186;28;20411;-69
2023/09/19 06:35:07;;;;;;;10.67;1.87;;;14.30;49.20;;;;;;5111293;27;20901;-70
2023/09/19 06:37:34;;;;;;;9.15;1.67;;;14.30;49.20;;;;;;5114648;27;20955;-69
2023/09/19 06:40:00;;;;;;;7.53;1.42;;;14.30;49.40;;;;;;5125336;27;20904;-69
2023/09/19 06:42:25;;;;;;;10.18;1.90;;;14.40;49.20;;;;;;5123552;27;20421;-69
2023/09/19 06:44:51;;;;;;;8.03;2.10;;;14.40;49.00;;;;;;5112190;27;20497;-70
2023/09/19 06:47:17;;;;;;;9.32;1.42;;;14.40;49.20;;;;;;5113973;27;20399;-70
2023/09/19 06:49:45;;;;;;;7.87;1.50;;;14.50;49.00;;;;;;5125625;27;20414;-70
2023/09/19 06:52:11;;;;;;;7.60;1.60;;;14.50;48.30;;;;;;5093427;28;20412;-69
2023/09/19 06:54:37;;;;;;;8.23;1.60;;;14.50;47.90;;;;;;5119845;27;20884;-70
2023/09/19 06:57:03;;;;;;;8.50;1.58;;;14.50;46.80;;;;;;5110992;28;20401;-70
2023/09/19 06:59:29;;;;;;;7.70;1.50;;;14.50;46.40;;;;;;5122227;27;20387;-70
2023/09/19 07:01:54;;;;;;;12.48;2.40;;;14.60;45.90;;;;;;5129668;27;20394;-70
2023/09/19 07:04:20;;;;;;;9.77;1.73;;;14.60;45.50;;;;;;5110865;27;20449;-69
2023/09/19 07:06:52;;;;;;;10.43;1.98;;;14.70;45.40;;;;;;5129673;27;20448;-70
2023/09/19 07:09:22;;;;;;;7.47;1.50;;;14.70;44.90;;;;;;5117350;27;20475;-69
2023/09/19 07:11:48;;;;;;;9.15;1.55;;;14.70;43.90;;;;;;5119345;27;20766;-70
2023/09/19 07:14:13;;;;;;;10.25;2.00;;;14.80;43.00;;;;;;5126887;27;20465;-69
2023/09/19 07:16:42;;;;;;;8.63;1.80;;;14.80;42.70;;;;;;5123307;27;20396;-70
2023/09/19 07:19:08;;;;;;;7.78;1.75;;;14.80;42.30;;;;;;5110047;27;20550;-70
2023/09/19 07:21:35;;;;;;;11.97;1.77;;;14.90;41.80;;;;;;5127195;27;20524;-70
2023/09/19 07:24:01;;;;;;;9.83;1.93;;;14.90;41.20;;;;;;5115945;27;20416;-70
2023/09/19 07:26:27;;;;;;;12.52;1.75;;;15.00;41.00;;;;;;5111688;27;20399;-70
2023/09/19 07:28:54;;;;;;;9.60;1.70;;;15.00;40.60;;;;;;5113602;27;20401;-70
2023/09/19 07:31:19;;;;;;;8.32;1.95;;;15.10;40.60;;;;;;5126290;27;20429;-70
2023/09/19 07:33:45;;;;;;;11.60;2.33;;;15.20;40.90;;;;;;5112662;27;20428;-70
2023/09/19 07:36:13;;;;;;;12.05;2.05;;;15.20;41.10;;;;;;5118583;27;20755;-70
2023/09/19 07:38:40;;;;;;;9.87;2.00;;;15.30;40.10;;;;;;5122431;27;20394;-69
2023/09/19 07:41:06;;;;;;;10.00;1.98;;;15.30;40.00;;;;;;5129645;27;20468;-69
2023/09/19 07:43:31;;;;;;;11.13;2.30;;;15.30;39.40;;;;;;5112739;27;20396;-70
2023/09/19 07:46:00;;;;;;;8.23;1.90;;;15.30;38.80;;;;;;5111432;27;20399;-70
2023/09/19 07:48:26;;;;;;;9.50;1.73;;;15.30;38.60;;;;;;5114690;27;20491;-69
2023/09/19 07:50:51;;;;;;;8.17;1.57;;;15.40;39.90;;;;;;5116821;27;20478;-70
2023/09/19 07:53:17;;;;;;;7.53;1.52;;;15.40;39.00;;;;;;5123908;27;20387;-70
2023/09/19 07:55:47;;;;;;;9.55;2.25;;;15.50;37.90;;;;;;5116928;27;20452;-70
2023/09/19 07:58:13;;;;;;;9.43;1.92;;;15.50;37.30;;;;;;5125436;27;20491;-70
2023/09/19 08:00:39;;;;;;;9.57;1.87;;;15.50;36.30;;;;;;5118540;27;20399;-70
2023/09/19 08:03:06;;;;;;;7.72;1.67;;;15.60;35.00;;;;;;5096155;28;20488;-70
2023/09/19 08:05:33;;;;;;;7.10;2.00;;;15.60;33.20;;;;;;5118861;27;20418;-69
2023/09/19 08:07:59;;;;;;;9.37;1.80;;;15.60;33.70;;;;;;5124850;27;20442;-70
2023/09/19 08:10:27;;;;;;;8.90;1.95;;;15.60;33.00;;;;;;5100625;27;20456;-69
2023/09/19 08:12:57;;;;;;;12.75;2.38;;;15.60;32.60;;;;;;5095037;27;20899;-70
2023/09/19 08:15:23;;;;;;;12.00;2.37;;;15.60;31.60;;;;;;5119781;27;20402;-70
2023/09/19 08:17:50;;;;;;;10.57;1.90;;;15.60;31.50;;;;;;5124492;27;20402;-70
2023/09/19 08:20:17;;;;;;;8.98;1.80;;;15.50;31.50;;;;;;5116837;27;20762;-70
2023/09/19 08:22:54;;;;;;;13.35;2.15;;;15.60;31.20;;;;;;5111104;27;20403;-70
2023/09/19 08:25:21;;;;;;;12.65;2.13;;;15.50;31.10;;;;;;5119894;27;20974;-70
2023/09/19 08:27:48;;;;;;;9.82;1.83;;;15.60;31.40;;;;;;5108648;28;20405;-69
2023/09/19 08:30:26;;;;;;;9.38;2.00;;;15.60;31.00;;;;;;5119809;27;20424;-69
2023/09/19 08:33:04;;;;;;;11.20;2.10;;;15.70;31.60;;;;;;5116043;27;20406;-70
2023/09/19 08:35:30;;;;;;;10.90;2.53;;;15.80;30.50;;;;;;5095698;27;20967;-70
2023/09/19 08:37:56;;;;;;;7.32;1.52;;;15.80;30.60;;;;;;5126929;27;20424;-70
2023/09/19 08:40:22;;;;;;;10.45;1.80;;;15.80;29.80;;;;;;5112702;27;20932;-70
2023/09/19 08:42:55;;;;;;;10.65;1.88;;;15.90;30.00;;;;;;5117978;27;20395;-70
2023/09/19 08:45:28;;;;;;;9.02;2.15;;;16.00;32.30;;;;;;5109887;27;20428;-70
2023/09/19 08:48:06;;;;;;;7.80;2.17;;;16.10;30.40;;;;;;5109005;28;20401;-70
2023/09/19 08:50:36;;;;;;;10.32;2.17;;;16.20;29.20;;;;;;5126226;27;20572;-70
2023/09/19 08:53:10;;;;;;;8.07;1.77;;;16.20;28.90;;;;;;5115452;27;20407;-70
2023/09/19 08:55:37;;;;;;;8.60;1.70;;;16.30;28.70;;;;;;5098062;27;20806;-70
2023/09/19 08:58:06;;;;;;;9.90;1.90;;;16.50;29.10;;;;;;5112024;27;20491;-70
2023/09/19 09:00:32;;;;;;;9.40;2.03;;;16.60;27.30;;;;;;5110861;27;20409;-70
2023/09/19 09:03:01;;;;;;;8.27;1.60;;;16.80;25.80;;;;;;5122687;27;20398;-70
2023/09/19 09:05:28;;;;;;;9.57;1.90;;;16.80;24.60;;;;;;5118295;27;20802;-70
2023/09/19 09:07:56;;;;;;;9.98;2.30;;;16.90;25.00;;;;;;5121745;27;20396;-70
2023/09/19 09:10:22;;;;;;;8.90;1.60;;;17.00;23.90;;;;;;5100072;28;20409;-70
2023/09/19 09:12:54;;;;;;;9.15;1.92;;;17.20;23.30;;;;;;5119372;27;20393;-70
2023/09/19 09:15:23;;;;;;;9.10;2.03;;;17.40;19.90;;;;;;5107764;28;21175;-70
2023/09/19 09:17:50;;;;;;;9.50;2.28;;;17.60;14.10;;;;;;5093800;28;20481;-70
2023/09/19 09:20:18;;;;;;;9.77;2.15;;;17.50;8.50;;;;;;5126683;27;20568;-70
2023/09/19 09:22:54;;;;;;;8.30;1.75;;;17.40;11.20;;;;;;5107005;27;20414;-70
2023/09/19 09:25:23;;;;;;;10.00;2.42;;;17.60;13.10;;;;;;5128101;27;20427;-70
2023/09/19 09:28:02;;;;;;;8.43;2.10;;;17.70;9.80;;;;;;5118532;28;20411;-70
2023/09/19 09:30:36;;;;;;;9.45;2.05;;;17.80;9.40;;;;;;5107933;28;20485;-70
2023/09/19 09:33:11;;;;;;;8.98;2.25;;;18.00;10.60;;;;;;5118168;28;20411;-70
2023/09/19 09:35:53;;;;;;;13.90;2.70;;;18.20;5.30;;;;;;5120934;28;20408;-70
2023/09/19 09:38:32;;;;;;;10.32;2.20;;;18.40;2.30;;;;;;5124401;28;20430;-70
2023/09/19 09:41:01;;;;;;;9.90;2.13;;;18.50;1.80;;;;;;5108324;28;20404;-70
2023/09/19 09:43:36;;;;;;;9.52;2.53;;;18.60;1.00;;;;;;5107784;28;20439;-70
2023/09/19 09:48:51;;;;;;;12.90;2.80;;;19.20;1.00;;;;;;5108306;28;20599;-70
2023/09/19 09:51:30;;;;;;;11.00;2.50;;;19.50;1.00;;;;;;5089826;28;20400;-70
2023/09/19 09:54:13;;;;;;;10.38;2.58;;;19.90;1.00;;;;;;5107818;28;20416;-71
2023/09/19 09:57:01;;;;;;;9.23;2.60;;;20.20;1.00;;;;;;5102699;28;21138;-70
2023/09/19 09:59:50;;;;;;;13.25;2.80;;;20.30;1.00;;;;;;5110928;28;20454;-70
2023/09/19 10:02:25;;;;;;;12.77;2.42;;;20.00;1.00;;;;;;5118587;28;20993;-70
2023/09/19 10:04:59;;;;;;;10.48;2.83;;;19.70;1.00;;;;;;5097178;28;20439;-70
2023/09/19 10:07:32;;;;;;;10.50;2.70;;;19.50;1.00;;;;;;5121689;27;20443;-70
2023/09/19 10:10:22;;;;;;;9.30;2.55;;;19.40;1.00;;;;;;5093419;28;20465;-70
2023/09/19 10:12:48;;;;;;;10.50;2.40;;;19.50;1.00;;;;;;5119240;27;20769;-70
2023/09/19 10:15:21;;;;;;;8.02;2.10;;;20.00;1.00;;;;;;5119607;27;20908;-70
2023/09/19 10:17:48;;;;;;;11.18;2.33;;;20.30;1.00;;;;;;5118470;27;20473;-70
2023/09/19 10:20:33;;;;;;;10.10;2.35;;;20.70;1.00;;;;;;5117190;27;20404;-70
2023/09/19 10:23:00;;;;;;;9.63;2.10;;;20.90;1.00;;;;;;5119580;27;20414;-70
2023/09/19 10:25:30;;;;;;;10.32;2.25;;;21.10;1.00;;;;;;5115137;27;20437;-71
2023/09/19 10:28:02;;;;;;;10.93;2.22;;;21.10;1.00;;;;;;5116074;27;20424;-70
2023/09/19 10:30:30;;;;;;;8.30;2.10;;;21.00;1.00;;;;;;5114756;27;20408;-70
2023/09/19 10:33:05;;;;;;;11.10;2.17;;;20.80;1.00;;;;;;5115159;27;20396;-70
2023/09/19 10:35:32;;;;;;;7.22;2.08;;;20.90;1.00;;;;;;5111068;27;20470;-70
2023/09/19 10:38:03;;;;;;;10.57;2.35;;;21.20;1.00;;;;;;5110464;27;20398;-70
2023/09/19 10:40:32;;;;;;;9.07;1.87;;;21.80;1.00;;;;;;5113767;27;20563;-70
2023/09/19 10:43:06;;;;;;;9.75;2.10;;;22.00;1.00;;;;;;5125766;27;20426;-70
2023/09/19 10:45:34;;;;;;;11.77;2.40;;;21.90;1.00;;;;;;5113471;27;20890;-70
2023/09/19 10:48:03;;;;;;;12.18;2.60;;;21.80;1.00;;;;;;5092944;27;20434;-70
2023/09/19 10:50:45;;;;;;;9.60;1.85;;;21.80;1.00;;;;;;5119297;27;20410;-71
2023/09/19 10:53:13;;;;;;;10.93;2.22;;;21.60;1.00;;;;;;5130157;27;20408;-70
2023/09/19 10:55:40;;;;;;;10.10;2.50;;;21.50;1.00;;;;;;5121448;27;20840;-70
2023/09/19 10:58:15;;;;;;;8.98;1.73;;;21.60;1.00;;;;;;5114228;27;20396;-70
2023/09/19 11:00:55;;;;;;;11.05;2.42;;;21.60;1.00;;;;;;5128812;27;20448;-70
2023/09/19 11:03:23;;;;;;;9.75;2.05;;;22.00;1.00;;;;;;5122070;27;20782;-70
2023/09/19 11:06:13;;;;;;;9.52;1.95;;;22.20;1.00;;;;;;5121082;27;20402;-71
2023/09/19 11:08:57;;;;;;;8.25;2.05;;;22.10;1.00;;;;;;5118498;27;20406;-70
2023/09/19 11:11:52;;;;;;;10.48;2.10;;;21.70;99.90;;;;;;5129924;27;20414;-70
2023/09/19 11:14:28;;;;;;;10.77;2.13;;;21.30;1.00;;;;;;5111221;27;20413;-70
2023/09/19 11:17:13;;;;;;;13.95;2.20;;;21.10;1.00;;;;;;5118926;27;20760;-70
2023/09/19 11:22:56;;;;;;;11.38;1.95;;;21.60;1.00;;;;;;5122892;27;20470;-70
2023/09/19 11:25:39;;;;;;;9.07;2.20;;;21.90;1.00;;;;;;5118116;27;20425;-70
2023/09/19 11:28:08;;;;;;;8.88;2.30;;;21.70;1.00;;;;;;5120549;27;20411;-71
2023/09/19 11:30:44;;;;;;;13.18;2.63;;;21.20;99.90;;;;;;5125724;27;20492;-70
2023/09/19 11:33:33;;;;;;;9.57;2.22;;;20.90;1.00;;;;;;5083794;27;20904;-70
2023/09/19 11:36:02;;;;;;;9.35;2.38;;;20.70;1.00;;;;;;5113727;27;20414;-70
2023/09/19 11:38:49;;;;;;;8.93;1.90;;;20.70;1.00;;;;;;5121190;27;20486;-70
2023/09/19 11:41:25;;;;;;;8.05;1.98;;;20.80;1.00;;;;;;5118565;27;20455;-70
2023/09/19 11:44:00;;;;;;;6.97;1.52;;;21.00;1.00;;;;;;5119975;27;20412;-70
2023/09/19 11:46:27;;;;;;;11.53;2.20;;;21.40;1.00;;;;;;5120052;27;20422;-70
2023/09/19 11:48:54;;;;;;;10.57;2.20;;;21.50;1.00;;;;;;5115335;27;20435;-71
2023/09/19 11:51:27;;;;;;;9.70;2.13;;;21.20;1.00;;;;;;5119471;27;20399;-70
2023/09/19 11:53:54;;;;;;;9.25;2.47;;;20.90;1.00;;;;;;5115559;27;20959;-70
2023/09/19 11:56:24;;;;;;;10.27;2.17;;;20.80;1.00;;;;;;5096674;27;20410;-70
2023/09/19 11:58:53;;;;;;;10.43;2.17;;;20.70;1.00;;;;;;5113603;27;20448;-70
2023/09/19 12:01:25;;;;;;;11.65;1.90;;;20.60;1.00;;;;;;5097176;27;20414;-70
2023/09/19 12:03:54;;;;;;;11.13;2.20;;;20.60;1.00;;;;;;5118420;27;20641;-70
2023/09/19 12:06:21;;;;;;;7.50;1.87;;;20.60;1.00;;;;;;5111621;27;20432;-70
2023/09/19 12:08:48;;;;;;;11.13;2.45;;;20.60;1.00;;;;;;5114207;27;20437;-70
2023/09/19 12:11:15;;;;;;;9.90;2.28;;;20.60;1.00;;;;;;5120943;27;20408;-69
2023/09/19 12:13:46;;;;;;;8.13;2.08;;;20.40;1.00;;;;;;5112158;27;20404;-70
2023/09/19 12:16:15;;;;;;;9.98;2.38;;;20.20;1.00;;;;;;5117635;27;20405;-70
2023/09/19 12:18:43;;;;;;;13.07;2.65;;;20.10;1.00;;;;;;5113807;27;20404;-70
2023/09/19 12:21:22;;;;;;;9.95;2.13;;;20.00;1.00;;;;;;5109456;27;20415;-70
2023/09/19 12:24:06;;;;;;;11.13;2.20;;;20.00;1.00;;;;;;5092390;27;20960;-70
2023/09/19 12:26:47;;;;;;;8.57;1.90;;;19.90;1.00;;;;;;5128089;27;20410;-70
2023/09/19 12:29:19;;;;;;;10.70;1.98;;;19.80;1.00;;;;;;5103219;28;20467;-70
2023/09/19 12:31:57;;;;;;;9.32;2.00;;;19.80;1.00;;;;;;5111095;27;20404;-70
2023/09/19 12:34:28;;;;;;;9.83;2.20;;;19.70;1.00;;;;;;5120155;27;20433;-70
2023/09/19 12:37:12;;;;;;;8.82;2.17;;;19.60;1.00;;;;;;5110415;27;20901;-70
2023/09/19 12:39:44;;;;;;;9.18;1.95;;;19.50;1.00;;;;;;5104062;27;20414;-69
2023/09/19 12:42:16;;;;;;;9.88;1.60;;;19.40;1.00;;;;;;5103504;28;20419;-69
2023/09/19 12:44:44;;;;;;;9.73;2.13;;;19.30;1.00;;;;;;5110763;27;20496;-70
2023/09/19 12:47:15;;;;;;;11.98;1.95;;;19.30;1.00;;;;;;5115998;27;20939;-69
2023/09/19 12:50:13;;;;;;;9.73;1.90;;;19.30;1.00;;;;;;5114479;27;20949;-69
2023/09/19 12:52:45;;;;;;;7.35;1.95;;;19.20;1.00;;;;;;5116569;27;20408;-69
2023/09/19 12:55:24;;;;;;;8.15;1.90;;;19.10;1.00;;;;;;5106520;28;20457;-70
2023/09/19 12:57:57;;;;;;;10.48;2.00;;;19.10;1.00;;;;;;5119126;27;20404;-70
2023/09/19 13:00:34;;;;;;;9.45;1.55;;;19.10;1.00;;;;;;5112771;27;20412;-70
2023/09/19 13:03:25;;;;;;;7.97;1.60;;;19.20;1.00;;;;;;5119131;27;20413;-70
2023/09/19 13:05:55;;;;;;;8.98;1.27;;;19.20;1.00;;;;;;5114260;27;20440;-70
2023/09/19 13:08:30;;;;;;;7.88;1.70;;;19.20;1.00;;;;;;5115570;27;20465;-70